Time,TemperatureF,DewpointF,PressureIn,WindDirection,WindDirectionDegrees,WindSpeedMPH,WindSpeedGustMPH,Humidity,HourlyPrecipIn,Conditions,Clouds,dailyrainin,SoftwareType,DateUTC
2016-07-26 00:03:00,65.8,64.6,29.99,West,270,0.0,-999.0,96,-99.99,,,0.00,,2016-07-26 04:03:00,
2016-07-26 00:09:00,65.7,64.5,29.99,WNW,292,0.0,-999.0,96,-99.99,,,0.00,,2016-07-26 04:09:00,
2016-07-26 00:15:00,65.7,64.8,29.99,West,270,0.0,-999.0,97,-99.99,,,0.00,,2016-07-26 04:15:00,
2016-07-26 00:20:00,65.5,64.6,29.99,WNW,292,0.0,-999.0,97,-99.99,,,0.00,,2016-07-26 04:20:00,
2016-07-26 00:25:00,65.5,64.6,29.99,West,270,0.0,-999.0,97,-99.99,,,0.00,,2016-07-26 04:25:00,
2016-07-26 00:30:00,65.5,64.6,29.99,West,270,0.0,-999.0,97,-99.99,,,0.00,,2016-07-26 04:30:00,
2016-07-26 00:35:00,65.5,64.6,29.99,West,270,0.0,-999.0,97,-99.99,,,0.00,,2016-07-26 04:35:00,
2016-07-26 00:40:00,65.3,64.4,30.00,WNW,292,0.0,-999.0,97,-99.99,,,0.00,,2016-07-26 04:40:00,
2016-07-26 00:46:00,65.1,64.2,30.00,West,270,0.0,-999.0,97,-99.99,,,0.00,,2016-07-26 04:46:00,
2016-07-26 00:51:00,64.9,64.0,30.00,West,270,1.7,-999.0,97,-99.99,,,0.00,,2016-07-26 04:51:00,
2016-07-26 00:57:00,64.9,64.0,30.00,WNW,292,0.0,-999.0,97,-99.99,,,0.00,,2016-07-26 04:57:00,
2016-07-26 01:02:00,64.8,63.9,30.00,WNW,292,0.0,-999.0,97,-99.99,,,0.00,,2016-07-26 05:02:00,
2016-07-26 01:07:00,64.8,63.9,30.00,SW,225,0.0,-999.0,97,-99.99,,,0.00,,2016-07-26 05:07:00,
2016-07-26 01:12:00,64.8,63.9,30.00,West,270,0.0,-999.0,97,-99.99,,,0.00,,2016-07-26 05:12:00,
2016-07-26 01:18:00,64.6,63.7,30.00,West,270,0.0,-999.0,97,-99.99,,,0.00,,2016-07-26 05:18:00,
2016-07-26 01:23:00,64.6,63.7,30.00,West,270,0.0,-999.0,97,-99.99,,,0.00,,2016-07-26 05:23:00,
2016-07-26 01:28:00,64.6,63.7,30.00,West,270,0.0,-999.0,97,-99.99,,,0.00,,2016-07-26 05:28:00,
2016-07-26 01:34:00,64.4,63.5,30.00,West,270,0.0,-999.0,97,-99.99,,,0.00,,2016-07-26 05:34:00,
2016-07-26 01:39:00,64.2,63.3,30.01,West,270,0.0,-999.0,97,-99.99,,,0.00,,2016-07-26 05:39:00,
2016-07-26 01:45:00,64.2,63.3,30.01,West,270,0.0,-999.0,97,-99.99,,,0.00,,2016-07-26 05:45:00,
2016-07-26 01:50:00,64.0,63.1,30.01,WNW,292,0.0,-999.0,97,-99.99,,,0.00,,2016-07-26 05:50:00,
2016-07-26 01:55:00,63.9,63.0,30.01,WNW,292,0.0,-999.0,97,-99.99,,,0.00,,2016-07-26 05:55:00,
2016-07-26 02:01:00,63.9,63.0,30.01,West,270,0.0,-999.0,97,-99.99,,,0.00,,2016-07-26 06:01:00,
2016-07-26 02:06:00,63.7,62.8,30.01,NNW,337,0.0,-999.0,97,-99.99,,,0.00,,2016-07-26 06:06:00,
2016-07-26 02:12:00,63.5,62.6,30.01,West,270,0.0,-999.0,97,-99.99,,,0.00,,2016-07-26 06:12:00,
2016-07-26 02:17:00,63.5,62.6,30.01,West,270,0.0,-999.0,97,-99.99,,,0.00,,2016-07-26 06:17:00,
2016-07-26 02:22:00,63.3,62.4,30.01,West,270,0.0,-999.0,97,-99.99,,,0.00,,2016-07-26 06:22:00,
2016-07-26 02:28:00,63.3,62.4,30.01,West,270,0.0,-999.0,97,-99.99,,,0.00,,2016-07-26 06:28:00,
2016-07-26 02:34:00,63.1,62.2,30.01,West,270,0.0,-999.0,97,-99.99,,,0.00,,2016-07-26 06:34:00,
2016-07-26 02:40:00,63.1,62.2,30.01,West,270,0.0,-999.0,97,-99.99,,,0.00,,2016-07-26 06:40:00,
2016-07-26 02:45:00,63.1,62.2,30.01,West,270,0.0,-999.0,97,-99.99,,,0.00,,2016-07-26 06:45:00,
2016-07-26 02:50:00,63.1,62.2,30.01,West,270,0.0,-999.0,97,-99.99,,,0.00,,2016-07-26 06:50:00,
2016-07-26 02:56:00,63.0,62.1,30.01,West,270,0.0,-999.0,97,-99.99,,,0.00,,2016-07-26 06:56:00,
2016-07-26 03:01:00,62.8,61.9,30.01,WNW,292,0.0,-999.0,97,-99.99,,,0.00,,2016-07-26 07:01:00,
2016-07-26 03:06:00,62.6,61.7,30.02,WNW,292,0.0,-999.0,97,-99.99,,,0.00,,2016-07-26 07:06:00,
2016-07-26 03:11:00,62.4,61.5,30.02,SW,225,0.0,-999.0,97,-99.99,,,0.00,,2016-07-26 07:11:00,
2016-07-26 03:17:00,62.2,61.3,30.02,West,270,0.0,-999.0,97,-99.99,,,0.00,,2016-07-26 07:17:00,
2016-07-26 03:22:00,62.1,61.2,30.02,WNW,292,0.0,-999.0,97,-99.99,,,0.00,,2016-07-26 07:22:00,
2016-07-26 03:27:00,62.1,61.2,30.02,WNW,292,0.0,-999.0,97,-99.99,,,0.00,,2016-07-26 07:27:00,
2016-07-26 03:32:00,61.9,61.0,30.02,WNW,292,0.0,-999.0,97,-99.99,,,0.00,,2016-07-26 07:32:00,
2016-07-26 03:38:00,61.9,61.0,30.02,West,270,0.0,-999.0,97,-99.99,,,0.00,,2016-07-26 07:38:00,
2016-07-26 03:44:00,61.7,60.8,30.02,WNW,292,0.0,-999.0,97,-99.99,,,0.00,,2016-07-26 07:44:00,
2016-07-26 03:49:00,61.5,60.6,30.02,SW,225,0.0,-999.0,97,-99.99,,,0.00,,2016-07-26 07:49:00,
2016-07-26 03:54:00,61.3,60.4,30.02,SSW,202,0.0,-999.0,97,-99.99,,,0.00,,2016-07-26 07:54:00,
2016-07-26 03:59:00,61.2,60.3,30.02,NNW,337,0.0,-999.0,97,-99.99,,,0.00,,2016-07-26 07:59:00,
2016-07-26 04:04:00,61.2,60.3,30.02,NW,315,0.0,-999.0,97,-99.99,,,0.00,,2016-07-26 08:04:00,
2016-07-26 04:09:00,61.2,60.3,30.02,NW,315,0.0,-999.0,97,-99.99,,,0.00,,2016-07-26 08:09:00,
2016-07-26 04:15:00,61.0,60.1,30.02,NNW,337,0.0,-999.0,97,-99.99,,,0.00,,2016-07-26 08:15:00,
2016-07-26 04:21:00,61.0,60.1,30.02,West,270,0.0,-999.0,97,-99.99,,,0.00,,2016-07-26 08:21:00,
2016-07-26 04:26:00,60.8,59.9,30.02,West,270,0.0,-999.0,97,-99.99,,,0.00,,2016-07-26 08:26:00,
2016-07-26 04:31:00,60.6,59.7,30.02,West,270,0.0,-999.0,97,-99.99,,,0.00,,2016-07-26 08:31:00,
2016-07-26 04:36:00,60.4,59.5,30.02,West,270,0.0,-999.0,97,-99.99,,,0.00,,2016-07-26 08:36:00,
2016-07-26 04:42:00,60.4,59.5,30.02,WNW,292,0.0,-999.0,97,-99.99,,,0.00,,2016-07-26 08:42:00,
2016-07-26 04:47:00,60.4,59.5,30.02,West,270,0.0,-999.0,97,-99.99,,,0.00,,2016-07-26 08:47:00,
2016-07-26 04:52:00,60.4,59.5,30.02,West,270,0.0,-999.0,97,-99.99,,,0.00,,2016-07-26 08:52:00,
2016-07-26 04:57:00,60.3,59.4,30.02,WSW,247,0.0,-999.0,97,-99.99,,,0.00,,2016-07-26 08:57:00,
2016-07-26 05:03:00,60.1,59.2,30.02,SW,225,0.0,-999.0,97,-99.99,,,0.00,,2016-07-26 09:03:00,
2016-07-26 05:08:00,59.9,59.0,30.02,West,270,0.0,-999.0,97,-99.99,,,0.00,,2016-07-26 09:08:00,
2016-07-26 05:13:00,59.9,59.0,30.02,West,270,0.0,-999.0,97,-99.99,,,0.00,,2016-07-26 09:13:00,
2016-07-26 05:19:00,59.9,59.0,30.03,West,270,0.0,-999.0,97,-99.99,,,0.00,,2016-07-26 09:19:00,
2016-07-26 05:24:00,59.9,59.0,30.03,South,180,0.0,-999.0,97,-99.99,,,0.00,,2016-07-26 09:24:00,
2016-07-26 05:29:00,59.9,59.0,30.03,South,180,0.0,-999.0,97,-99.99,,,0.00,,2016-07-26 09:29:00,
2016-07-26 05:34:00,59.7,58.8,30.03,West,270,0.0,-999.0,97,-99.99,,,0.00,,2016-07-26 09:34:00,
2016-07-26 05:40:00,59.7,58.8,30.03,NW,315,0.0,-999.0,97,-99.99,,,0.00,,2016-07-26 09:40:00,
2016-07-26 05:46:00,59.7,58.8,30.03,NW,315,0.0,-999.0,97,-99.99,,,0.00,,2016-07-26 09:46:00,
2016-07-26 05:51:00,59.5,58.6,30.04,NW,315,0.0,-999.0,97,-99.99,,,0.00,,2016-07-26 09:51:00,
2016-07-26 05:56:00,59.4,58.5,30.04,WNW,292,0.0,-999.0,97,-99.99,,,0.00,,2016-07-26 09:56:00,
2016-07-26 06:01:00,59.4,58.5,30.04,West,270,0.0,-999.0,97,-99.99,,,0.00,,2016-07-26 10:01:00,
2016-07-26 06:07:00,59.2,58.3,30.04,West,270,0.0,-999.0,97,-99.99,,,0.00,,2016-07-26 10:07:00,
2016-07-26 06:12:00,59.2,58.3,30.04,WNW,292,0.0,-999.0,97,-99.99,,,0.00,,2016-07-26 10:12:00,
2016-07-26 06:17:00,59.2,58.3,30.04,West,270,0.0,-999.0,97,-99.99,,,0.00,,2016-07-26 10:17:00,
2016-07-26 06:22:00,59.0,58.1,30.04,West,270,0.0,-999.0,97,-99.99,,,0.00,,2016-07-26 10:22:00,
2016-07-26 06:28:00,58.8,58.0,30.05,West,270,0.0,-999.0,97,-99.99,,,0.00,,2016-07-26 10:28:00,
2016-07-26 06:33:00,58.8,58.0,30.05,West,270,0.0,-999.0,97,-99.99,,,0.00,,2016-07-26 10:33:00,
2016-07-26 06:38:00,58.6,57.8,30.05,SW,225,0.0,-999.0,97,-99.99,,,0.00,,2016-07-26 10:38:00,
2016-07-26 06:44:00,58.6,57.8,30.05,WSW,247,0.0,-999.0,97,-99.99,,,0.00,,2016-07-26 10:44:00,
2016-07-26 06:49:00,58.6,57.8,30.05,West,270,0.0,-999.0,97,-99.99,,,0.00,,2016-07-26 10:49:00,
2016-07-26 06:54:00,58.8,58.0,30.05,SW,225,0.0,-999.0,97,-99.99,,,0.00,,2016-07-26 10:54:00,
2016-07-26 06:59:00,58.8,58.0,30.05,West,270,0.0,-999.0,97,-99.99,,,0.00,,2016-07-26 10:59:00,
2016-07-26 07:05:00,59.0,58.1,30.06,West,270,0.0,-999.0,97,-99.99,,,0.00,,2016-07-26 11:05:00,
2016-07-26 07:11:00,59.5,58.6,30.06,West,270,0.0,-999.0,97,-99.99,,,0.00,,2016-07-26 11:11:00,
2016-07-26 07:16:00,60.4,59.5,30.06,West,270,0.0,-999.0,97,-99.99,,,0.00,,2016-07-26 11:16:00,
2016-07-26 07:21:00,61.9,61.0,30.06,West,270,0.0,-999.0,97,-99.99,,,0.00,,2016-07-26 11:21:00,
2016-07-26 07:26:00,63.3,62.7,30.06,West,270,0.0,-999.0,98,-99.99,,,0.00,,2016-07-26 11:26:00,
2016-07-26 07:32:00,64.9,64.3,30.06,West,270,0.0,-999.0,98,-99.99,,,0.00,,2016-07-26 11:32:00,
2016-07-26 07:37:00,66.4,65.8,30.06,West,270,0.0,-999.0,98,-99.99,,,0.00,,2016-07-26 11:37:00,
2016-07-26 07:42:00,68.2,66.7,30.07,West,270,0.0,-999.0,95,-99.99,,,0.00,,2016-07-26 11:42:00,
2016-07-26 07:47:00,69.8,68.0,30.07,West,270,0.0,-999.0,94,-99.99,,,0.00,,2016-07-26 11:47:00,
2016-07-26 07:52:00,71.2,68.8,30.07,West,270,0.0,-999.0,92,-99.99,,,0.00,,2016-07-26 11:52:00,
2016-07-26 07:57:00,72.3,68.9,30.07,West,270,0.0,-999.0,89,-99.99,,,0.00,,2016-07-26 11:57:00,
2016-07-26 08:02:00,73.9,69.4,30.07,West,270,0.0,-999.0,86,-99.99,,,0.00,,2016-07-26 12:02:00,
2016-07-26 08:07:00,75.2,69.7,30.07,West,270,0.0,-999.0,83,-99.99,,,0.00,,2016-07-26 12:07:00,
2016-07-26 08:12:00,76.1,69.5,30.07,West,270,0.0,-999.0,80,-99.99,,,0.00,,2016-07-26 12:12:00,
2016-07-26 08:18:00,77.2,69.8,30.07,WNW,292,0.0,-999.0,78,-99.99,,,0.00,,2016-07-26 12:18:00,
2016-07-26 08:24:00,78.6,70.4,30.07,WSW,247,0.0,-999.0,76,-99.99,,,0.00,,2016-07-26 12:24:00,
2016-07-26 08:29:00,79.7,70.3,30.07,WNW,292,0.0,-999.0,73,-99.99,,,0.00,,2016-07-26 12:29:00,
2016-07-26 08:34:00,80.8,69.7,30.07,NW,315,0.0,-999.0,69,-99.99,,,0.00,,2016-07-26 12:34:00,
2016-07-26 08:40:00,81.3,69.3,30.07,West,270,1.7,-999.0,67,-99.99,,,0.00,,2016-07-26 12:40:00,
2016-07-26 08:46:00,82.0,68.6,30.07,North,360,2.2,-999.0,64,-99.99,,,0.00,,2016-07-26 12:46:00,
2016-07-26 08:51:00,83.1,69.2,30.07,NNW,337,0.0,-999.0,63,-99.99,,,0.00,,2016-07-26 12:51:00,
2016-07-26 08:56:00,83.5,69.6,30.07,NW,315,1.7,-999.0,63,-99.99,,,0.00,,2016-07-26 12:56:00,
2016-07-26 09:01:00,84.0,69.1,30.07,NNE,22,1.1,-999.0,61,-99.99,,,0.00,,2016-07-26 13:01:00,
2016-07-26 09:07:00,84.4,68.5,30.07,WNW,292,2.2,-999.0,59,-99.99,,,0.00,,2016-07-26 13:07:00,
2016-07-26 09:12:00,84.9,68.5,30.07,NNE,22,2.2,-999.0,58,-99.99,,,0.00,,2016-07-26 13:12:00,
2016-07-26 09:17:00,86.4,69.9,30.07,East,90,2.7,-999.0,58,-99.99,,,0.00,,2016-07-26 13:17:00,
2016-07-26 09:22:00,86.2,69.2,30.07,ESE,112,2.7,-999.0,57,-99.99,,,0.00,,2016-07-26 13:22:00,
2016-07-26 09:28:00,87.1,69.0,30.07,ENE,67,2.2,-999.0,55,-99.99,,,0.00,,2016-07-26 13:28:00,
2016-07-26 09:33:00,87.8,69.1,30.07,NNW,337,1.1,-999.0,54,-99.99,,,0.00,,2016-07-26 13:33:00,
2016-07-26 09:38:00,88.5,69.2,30.06,SSE,157,2.2,-999.0,53,-99.99,,,0.00,,2016-07-26 13:38:00,
2016-07-26 09:43:00,90.0,68.3,30.06,NNE,22,0.0,-999.0,49,-99.99,,,0.00,,2016-07-26 13:43:00,
2016-07-26 09:49:00,89.8,70.4,30.06,NW,315,1.1,-999.0,53,-99.99,,,0.00,,2016-07-26 13:49:00,
2016-07-26 09:54:00,90.9,67.9,30.06,ENE,67,2.7,-999.0,47,-99.99,,,0.00,,2016-07-26 13:54:00,
2016-07-26 09:59:00,91.2,66.9,30.06,WNW,292,1.7,-999.0,45,-99.99,,,0.00,,2016-07-26 13:59:00,
2016-07-26 10:04:00,91.4,67.1,30.06,NNW,337,0.0,-999.0,45,-99.99,,,0.00,,2016-07-26 14:04:00,
2016-07-26 10:10:00,91.6,67.3,30.06,East,90,3.2,-999.0,45,-99.99,,,0.00,,2016-07-26 14:10:00,
2016-07-26 10:15:00,91.6,68.5,30.06,North,360,2.2,-999.0,47,-99.99,,,0.00,,2016-07-26 14:15:00,
2016-07-26 10:20:00,90.9,67.3,30.06,SSE,157,2.2,-999.0,46,-99.99,,,0.00,,2016-07-26 14:20:00,
2016-07-26 10:26:00,91.8,67.4,30.06,NNE,22,2.7,-999.0,45,-99.99,,,0.00,,2016-07-26 14:26:00,
2016-07-26 10:31:00,92.5,66.8,30.06,East,90,2.7,-999.0,43,-99.99,,,0.00,,2016-07-26 14:31:00,
2016-07-26 10:36:00,92.5,66.8,30.06,East,90,2.7,-999.0,43,-99.99,,,0.00,,2016-07-26 14:36:00,
2016-07-26 10:41:00,91.8,68.7,30.06,East,90,3.7,-999.0,47,-99.99,,,0.00,,2016-07-26 14:41:00,
2016-07-26 10:47:00,91.9,67.5,30.06,WNW,292,2.2,-999.0,45,-99.99,,,0.00,,2016-07-26 14:47:00,
2016-07-26 10:52:00,92.1,66.4,30.06,SE,135,2.2,-999.0,43,-99.99,,,0.00,,2016-07-26 14:52:00,
2016-07-26 10:57:00,93.0,67.2,30.06,ENE,67,2.2,-999.0,43,-99.99,,,0.00,,2016-07-26 14:57:00,
2016-07-26 11:02:00,92.5,67.4,30.06,South,180,1.7,-999.0,44,-99.99,,,0.00,,2016-07-26 15:02:00,
2016-07-26 11:08:00,93.4,67.6,30.06,SSW,202,1.1,-999.0,43,-99.99,,,0.00,,2016-07-26 15:08:00,
2016-07-26 11:14:00,93.9,68.7,30.06,East,90,4.2,-999.0,44,-99.99,,,0.00,,2016-07-26 15:14:00,
2016-07-26 11:19:00,93.7,67.2,30.06,NNE,22,2.7,-999.0,42,-99.99,,,0.00,,2016-07-26 15:19:00,
2016-07-26 11:24:00,92.8,67.0,30.06,ENE,67,3.7,-999.0,43,-99.99,,,0.00,,2016-07-26 15:24:00,
2016-07-26 11:29:00,93.7,67.2,30.06,North,360,3.7,-999.0,42,-99.99,,,0.00,,2016-07-26 15:29:00,
2016-07-26 11:35:00,94.3,68.4,30.06,WNW,292,1.7,-999.0,43,-99.99,,,0.00,,2016-07-26 15:35:00,
2016-07-26 11:40:00,94.1,67.5,30.07,South,180,1.7,-999.0,42,-99.99,,,0.00,,2016-07-26 15:40:00,
2016-07-26 11:46:00,94.8,66.7,30.07,SE,135,3.2,-999.0,40,-99.99,,,0.00,,2016-07-26 15:46:00,
2016-07-26 11:51:00,94.5,67.2,30.07,NE,45,0.0,-999.0,41,-99.99,,,0.00,,2016-07-26 15:51:00,
2016-07-26 11:56:00,95.7,68.9,30.07,NNE,22,2.7,-999.0,42,-99.99,,,0.00,,2016-07-26 15:56:00,
2016-07-26 12:01:00,95.7,67.5,30.07,ENE,67,2.2,-999.0,40,-99.99,,,0.00,,2016-07-26 16:01:00,
2016-07-26 12:07:00,95.2,66.4,30.06,NE,45,5.8,-999.0,39,-99.99,,,0.00,,2016-07-26 16:07:00,
2016-07-26 12:13:00,92.7,64.9,30.06,East,90,4.7,-999.0,40,-99.99,,,0.00,,2016-07-26 16:13:00,
2016-07-26 12:18:00,89.4,64.6,30.06,NNE,22,2.2,-999.0,44,-99.99,,,0.00,,2016-07-26 16:18:00,
2016-07-26 12:23:00,91.2,65.6,30.06,ENE,67,2.7,-999.0,43,-99.99,,,0.00,,2016-07-26 16:23:00,
2016-07-26 12:28:00,92.7,66.3,30.06,NNE,22,3.7,-999.0,42,-99.99,,,0.00,,2016-07-26 16:28:00,
2016-07-26 12:34:00,93.9,65.9,30.06,NE,45,2.2,-999.0,40,-99.99,,,0.00,,2016-07-26 16:34:00,
2016-07-26 12:39:00,94.1,66.8,30.06,WNW,292,2.7,-999.0,41,-99.99,,,0.00,,2016-07-26 16:39:00,
2016-07-26 12:44:00,95.4,66.5,30.06,NNW,337,1.7,-999.0,39,-99.99,,,0.00,,2016-07-26 16:44:00,
2016-07-26 12:50:00,96.6,67.6,30.05,NNE,22,3.7,-999.0,39,-99.99,,,0.00,,2016-07-26 16:50:00,
2016-07-26 12:55:00,96.3,68.1,30.05,East,90,2.2,-999.0,40,-99.99,,,0.00,,2016-07-26 16:55:00,
2016-07-26 13:01:00,95.5,66.6,30.05,NW,315,3.2,-999.0,39,-99.99,,,0.00,,2016-07-26 17:01:00,
2016-07-26 13:06:00,96.4,65.9,30.05,WSW,247,2.2,-999.0,37,-99.99,,,0.00,,2016-07-26 17:06:00,
2016-07-26 13:11:00,95.7,66.8,30.05,NNE,22,3.2,-999.0,39,-99.99,,,0.00,,2016-07-26 17:11:00,
2016-07-26 13:17:00,97.3,66.7,30.05,West,270,1.7,-999.0,37,-99.99,,,0.00,,2016-07-26 17:17:00,
2016-07-26 13:22:00,97.5,64.4,30.05,West,270,3.7,-999.0,34,-99.99,,,0.00,,2016-07-26 17:22:00,
2016-07-26 13:27:00,97.0,65.6,30.05,West,270,2.7,-999.0,36,-99.99,,,0.00,,2016-07-26 17:27:00,